createdAt,value
2023-02-12T00:00:03.833Z,8.03
2023-02-12T00:02:30.840Z,4.67
2023-02-12T00:04:57.353Z,8.33
2023-02-12T00:07:23.873Z,9.50
2023-02-12T00:09:50.412Z,7.17
2023-02-12T00:12:17.225Z,6.83
2023-02-12T00:14:43.699Z,4.73
2023-02-12T00:17:10.168Z,5.10
2023-02-12T00:19:36.763Z,6.90
2023-02-12T00:22:04.284Z,7.77
2023-02-12T00:24:30.916Z,8.73
2023-02-12T00:26:57.430Z,9.87
2023-02-12T00:29:23.892Z,5.77
2023-02-12T00:31:50.431Z,8.27
2023-02-12T00:34:17.005Z,11.37
2023-02-12T00:36:43.551Z,12.40
2023-02-12T00:39:10.619Z,12.77
2023-02-12T00:41:37.106Z,10.23
2023-02-12T00:44:03.783Z,9.27
2023-02-12T00:46:30.410Z,7.77
2023-02-12T00:48:56.917Z,12.17
2023-02-12T00:51:23.434Z,11.63
2023-02-12T00:53:50.950Z,9.67
2023-02-12T00:56:17.521Z,9.63
2023-02-12T00:58:44.061Z,10.43
2023-02-12T01:01:10.696Z,8.23
2023-02-12T01:03:38.561Z,11.43
2023-02-12T01:06:06.081Z,12.63
2023-02-12T01:08:32.590Z,11.77
2023-02-12T01:11:01.358Z,9.60
2023-02-12T01:13:28.897Z,7.43
2023-02-12T01:16:16.928Z,10.10
2023-02-12T01:18:44.289Z,10.70
2023-02-12T01:21:19.291Z,12.60
2023-02-12T01:23:46.783Z,9.53
2023-02-12T01:26:19.804Z,10.53
2023-02-12T01:28:51.292Z,6.33
2023-02-12T01:31:20.476Z,12.60
2023-02-12T01:33:51.956Z,11.97
2023-02-12T01:36:18.463Z,11.17
2023-02-12T01:38:45.072Z,16.03
2023-02-12T01:41:13.207Z,15.07
2023-02-12T01:43:40.410Z,15.03
2023-02-12T01:46:07.995Z,12.37
2023-02-12T01:48:38.411Z,11.50
2023-02-12T01:51:05.109Z,15.90
2023-02-12T01:53:37.076Z,12.13
2023-02-12T01:56:04.050Z,10.07
2023-02-12T01:58:35.662Z,12.40
2023-02-12T02:01:05.365Z,12.53
2023-02-12T02:03:33.247Z,14.50
2023-02-12T02:06:04.571Z,14.10
2023-02-12T02:08:31.051Z,17.30
2023-02-12T02:10:57.539Z,16.37
2023-02-12T02:13:42.709Z,12.40
2023-02-12T02:16:21.326Z,11.40
2023-02-12T02:18:56.571Z,14.80
2023-02-12T02:21:36.032Z,17.80
2023-02-12T02:24:26.897Z,13.40
2023-02-12T02:27:12.622Z,10.03
2023-02-12T02:30:10.008Z,13.83
2023-02-12T02:33:21.467Z,11.20
2023-02-12T02:35:56.241Z,16.50
2023-02-12T02:38:29.842Z,14.17
2023-02-12T02:41:06.491Z,12.67
2023-02-12T02:43:45.542Z,18.47
2023-02-12T02:46:16.139Z,15.33
2023-02-12T02:48:53.677Z,13.90
2023-02-12T02:51:23.517Z,16.83
2023-02-12T02:54:07.597Z,15.57
2023-02-12T02:56:37.366Z,15.90
2023-02-12T02:59:11.724Z,12.93
2023-02-12T03:01:41.997Z,17.40
2023-02-12T03:04:12.315Z,14.87
2023-02-12T03:07:10.670Z,19.03
2023-02-12T03:09:50.272Z,17.97
2023-02-12T03:12:21.585Z,20.70
2023-02-12T03:14:52.948Z,17.50
2023-02-12T03:17:27.295Z,21.77
2023-02-12T03:20:05.245Z,18.37
2023-02-12T03:22:34.996Z,17.03
2023-02-12T03:25:25.905Z,17.17
2023-02-12T03:28:00.976Z,17.53
2023-02-12T03:30:39.136Z,16.90
2023-02-12T03:33:22.099Z,17.87
2023-02-12T03:36:01.858Z,16.47
2023-02-12T03:38:50.206Z,15.87
2023-02-12T03:41:35.728Z,20.83
2023-02-12T03:44:18.711Z,20.43
2023-02-12T03:47:10.314Z,19.90
2023-02-12T03:49:49.243Z,20.80
2023-02-12T03:52:15.903Z,21.93
2023-02-12T03:54:42.456Z,23.53
2023-02-12T03:57:13.433Z,24.03
2023-02-12T03:59:41.357Z,26.47
2023-02-12T04:02:08.212Z,28.70
2023-02-12T04:04:35.085Z,32.87
2023-02-12T04:07:02.173Z,26.33
2023-02-12T04:09:29.552Z,33.33
2023-02-12T04:12:02.511Z,32.03
2023-02-12T04:14:41.675Z,30.93
2023-02-12T04:17:36.670Z,42.73
2023-02-12T04:20:03.827Z,34.10
2023-02-12T04:23:00.766Z,34.60
2023-02-12T04:25:49.010Z,25.00
2023-02-12T04:28:36.466Z,44.97
2023-02-12T04:31:08.151Z,36.63
2023-02-12T04:33:43.586Z,43.73
2023-02-12T04:36:16.412Z,50.00
2023-02-12T04:38:58.009Z,47.50
2023-02-12T04:41:26.352Z,68.53
2023-02-12T04:43:52.907Z,63.23
2023-02-12T04:46:19.513Z,65.50
2023-02-12T04:48:53.649Z,136.60
2023-02-12T04:51:21.143Z,81.30
2023-02-12T04:53:47.864Z,106.00
2023-02-12T04:56:15.159Z,57.83
2023-02-12T04:58:42.082Z,92.10
2023-02-12T05:01:10.275Z,65.63
2023-02-12T05:03:37.282Z,91.83
2023-02-12T05:06:05.258Z,124.87
2023-02-12T05:08:37.923Z,120.00
2023-02-12T05:11:06.706Z,94.17
2023-02-12T05:13:33.555Z,129.40
2023-02-12T05:16:00.291Z,133.23
2023-02-12T05:18:26.865Z,111.27
2023-02-12T05:21:01.703Z,145.13
2023-02-12T05:23:33.476Z,116.10
2023-02-12T05:26:01.137Z,126.20
2023-02-12T05:28:28.355Z,112.33
2023-02-12T05:30:55.020Z,116.00
2023-02-12T05:33:21.570Z,113.60
2023-02-12T05:35:48.141Z,101.27
2023-02-12T05:38:14.629Z,89.60
2023-02-12T05:40:43.116Z,94.90
2023-02-12T05:43:09.675Z,84.80
2023-02-12T05:45:38.066Z,83.73
2023-02-12T05:48:04.651Z,82.43
2023-02-12T05:50:31.134Z,78.70
2023-02-12T05:52:57.571Z,86.00
2023-02-12T05:55:24.039Z,78.20
2023-02-12T05:57:51.061Z,69.07
2023-02-12T06:00:17.813Z,77.80
2023-02-12T06:02:44.257Z,73.40
2023-02-12T06:05:10.773Z,86.60
2023-02-12T06:07:37.256Z,72.60
2023-02-12T06:10:03.857Z,73.70
2023-02-12T06:12:30.284Z,69.87
2023-02-12T06:14:56.727Z,72.80
2023-02-12T06:17:23.210Z,82.50
2023-02-12T06:19:49.837Z,75.57
2023-02-12T06:22:16.298Z,66.73
2023-02-12T06:24:42.722Z,74.83
2023-02-12T06:27:09.192Z,67.13
2023-02-12T06:29:35.680Z,69.67
2023-02-12T06:32:02.312Z,73.27
2023-02-12T06:34:29.050Z,71.77
2023-02-12T06:36:55.572Z,58.07
2023-02-12T06:39:22.074Z,70.37
2023-02-12T06:41:48.629Z,67.33
2023-02-12T06:44:15.144Z,68.13
2023-02-12T06:46:41.879Z,67.87
2023-02-12T06:49:08.596Z,68.90
2023-02-12T06:51:36.436Z,61.90
2023-02-12T06:54:02.898Z,71.80
2023-02-12T06:56:29.384Z,67.33
2023-02-12T06:58:57.957Z,61.57
2023-02-12T07:01:26.957Z,69.67
2023-02-12T07:03:56.606Z,74.37
2023-02-12T07:06:23.695Z,60.83
2023-02-12T07:08:50.322Z,67.47
2023-02-12T07:11:17.064Z,74.63
2023-02-12T07:13:44.963Z,58.57
2023-02-12T07:16:14.464Z,74.90
2023-02-12T07:18:41.456Z,71.67
2023-02-12T07:21:08.906Z,55.73
2023-02-12T07:23:35.952Z,81.23
2023-02-12T07:26:07.735Z,67.20
2023-02-12T07:28:34.889Z,77.33
2023-02-12T07:31:10.604Z,65.07
2023-02-12T07:33:37.914Z,78.27
2023-02-12T07:36:06.730Z,80.50
2023-02-12T07:38:36.117Z,62.50
2023-02-12T07:41:10.727Z,70.57
2023-02-12T07:43:37.579Z,64.53
2023-02-12T07:46:08.905Z,73.67
2023-02-12T07:48:35.549Z,48.33
2023-02-12T07:51:07.514Z,67.07
2023-02-12T07:53:34.206Z,58.83
2023-02-12T07:56:12.711Z,66.87
2023-02-12T07:58:40.449Z,66.87
2023-02-12T08:01:23.425Z,57.60
2023-02-12T08:03:51.061Z,62.13
2023-02-12T08:06:20.272Z,66.97
2023-02-12T08:08:47.327Z,65.90
2023-02-12T08:11:15.117Z,51.17
2023-02-12T08:13:41.910Z,42.07
2023-02-12T08:16:14.868Z,52.23
2023-02-12T08:18:41.615Z,54.30
2023-02-12T08:21:13.450Z,53.83
2023-02-12T08:23:40.717Z,51.30
2023-02-12T08:26:13.984Z,49.27
2023-02-12T08:28:49.389Z,55.73
2023-02-12T08:31:21.056Z,43.40
2023-02-12T08:33:48.975Z,46.83
2023-02-12T08:36:18.407Z,40.47
2023-02-12T08:38:45.744Z,40.00
2023-02-12T08:41:14.690Z,42.53
2023-02-12T08:43:42.036Z,40.17
2023-02-12T08:46:11.692Z,32.67
2023-02-12T08:48:39.027Z,40.93
2023-02-12T08:51:13.317Z,38.83
2023-02-12T08:53:41.725Z,34.60
2023-02-12T08:56:09.712Z,38.37
2023-02-12T08:58:36.696Z,36.33
2023-02-12T09:01:04.655Z,33.30
2023-02-12T09:03:31.352Z,35.03
2023-02-12T09:05:58.076Z,37.03
2023-02-12T09:08:24.695Z,34.80
2023-02-12T09:10:51.122Z,34.23
2023-02-12T09:13:17.580Z,36.17
2023-02-12T09:15:45.186Z,37.07
2023-02-12T09:18:13.294Z,40.47
2023-02-12T09:20:41.451Z,35.37
2023-02-12T09:23:08.873Z,33.07
2023-02-12T09:25:40.169Z,36.33
2023-02-12T09:28:06.699Z,36.67
2023-02-12T09:30:33.243Z,33.47
2023-02-12T09:32:59.776Z,37.53
2023-02-12T09:35:26.329Z,34.13
2023-02-12T09:37:53.666Z,34.50
2023-02-12T09:40:31.713Z,33.47
2023-02-12T09:43:04.116Z,29.37
2023-02-12T09:45:35.503Z,29.83
2023-02-12T09:48:38.982Z,35.73
2023-02-12T09:51:07.819Z,30.30
2023-02-12T09:53:38.598Z,29.60
2023-02-12T09:56:21.037Z,33.77
2023-02-12T09:58:51.486Z,28.23
2023-02-12T10:01:19.968Z,31.40
2023-02-12T10:03:48.632Z,30.90
2023-02-12T10:06:18.014Z,28.67
2023-02-12T10:08:48.538Z,24.50
2023-02-12T10:11:36.536Z,27.50
2023-02-12T10:14:20.278Z,23.80
2023-02-12T10:17:03.894Z,24.60
2023-02-12T10:19:45.392Z,20.40
2023-02-12T10:22:32.302Z,24.13
2023-02-12T10:25:09.448Z,20.67
2023-02-12T10:27:40.966Z,20.77
2023-02-12T10:30:39.669Z,24.20
2023-02-12T10:33:45.539Z,22.93
2023-02-12T10:36:19.488Z,22.53
2023-02-12T10:38:50.939Z,27.20
2023-02-12T10:41:17.662Z,22.23
2023-02-12T10:43:44.206Z,24.30
2023-02-12T10:46:15.338Z,27.80
2023-02-12T10:48:47.606Z,21.63
2023-02-12T10:51:48.841Z,22.73
2023-02-12T10:54:32.812Z,21.07
2023-02-12T10:57:00.478Z,17.67
2023-02-12T10:59:27.075Z,22.07
2023-02-12T11:01:55.812Z,19.30
2023-02-12T11:04:28.697Z,16.30
2023-02-12T11:06:59.692Z,18.27
2023-02-12T11:09:48.308Z,20.13
2023-02-12T11:12:48.940Z,15.37
2023-02-12T11:15:18.772Z,13.17
2023-02-12T11:17:55.101Z,16.77
2023-02-12T11:20:41.090Z,17.33
2023-02-12T11:23:26.710Z,14.80
2023-02-12T11:26:07.006Z,17.20
2023-02-12T11:28:36.481Z,15.60
2023-02-12T11:31:19.383Z,19.40
2023-02-12T11:33:47.283Z,18.87
2023-02-12T11:36:21.135Z,14.23
2023-02-12T11:38:55.760Z,13.50
2023-02-12T11:41:22.269Z,11.83
2023-02-12T11:44:09.635Z,9.80
2023-02-12T11:46:36.294Z,12.27
2023-02-12T11:49:02.852Z,9.60
2023-02-12T11:51:31.080Z,10.33
2023-02-12T11:54:19.816Z,8.27
2023-02-12T11:56:46.956Z,9.87
2023-02-12T11:59:38.876Z,7.77
2023-02-12T12:02:58.407Z,8.40
2023-02-12T12:05:30.833Z,6.33
2023-02-12T12:08:00.769Z,5.63
2023-02-12T12:10:50.236Z,5.10
2023-02-12T12:13:25.652Z,6.10
2023-02-12T12:16:25.531Z,5.00
2023-02-12T12:19:33.943Z,5.43
2023-02-12T12:22:18.978Z,4.23
2023-02-12T12:24:54.008Z,4.40
2023-02-12T12:27:45.827Z,3.93
2023-02-12T12:30:20.703Z,3.83
2023-02-12T12:32:48.149Z,4.07
2023-02-12T12:35:19.313Z,4.73
2023-02-12T12:37:54.941Z,4.10
2023-02-12T12:41:03.228Z,3.50
2023-02-12T12:44:04.137Z,3.47
2023-02-12T12:46:35.676Z,2.70
2023-02-12T12:49:42.538Z,4.03
2023-02-12T12:52:31.146Z,3.63
2023-02-12T12:55:22.211Z,3.00
2023-02-12T12:58:13.195Z,2.80
2023-02-12T13:01:02.297Z,3.30
2023-02-12T13:04:06.532Z,2.70
2023-02-12T13:06:41.709Z,2.87
2023-02-12T13:09:20.963Z,2.60
2023-02-12T13:12:09.043Z,2.93
2023-02-12T13:15:00.910Z,2.80
2023-02-12T13:17:41.448Z,4.27
2023-02-12T13:20:27.199Z,2.70
2023-02-12T13:23:09.542Z,2.70
2023-02-12T13:25:45.045Z,2.80
2023-02-12T13:28:15.862Z,2.50
2023-02-12T13:30:45.733Z,2.53
2023-02-12T13:33:22.490Z,2.90
2023-02-12T13:36:00.792Z,2.40
2023-02-12T13:38:37.298Z,2.33
2023-02-12T13:41:07.286Z,2.80
2023-02-12T13:43:45.395Z,3.23
2023-02-12T13:46:45.273Z,2.67
2023-02-12T13:49:17.989Z,2.43
2023-02-12T13:51:56.921Z,2.87
2023-02-12T13:54:36.820Z,3.47
2023-02-12T13:57:09.173Z,2.70
2023-02-12T13:59:35.659Z,3.10
2023-02-12T14:02:04.234Z,3.17
2023-02-12T14:04:34.130Z,2.67
2023-02-12T14:07:05.089Z,4.90
2023-02-12T14:09:37.979Z,5.27
2023-02-12T14:12:06.888Z,3.57
2023-02-12T14:14:37.161Z,2.70
2023-02-12T14:17:39.180Z,3.33
2023-02-12T14:20:24.450Z,4.10
2023-02-12T14:22:50.853Z,3.73
2023-02-12T14:25:27.495Z,4.90
2023-02-12T14:28:34.633Z,5.60
2023-02-12T14:31:23.233Z,6.40
2023-02-12T14:33:52.859Z,6.60
2023-02-12T14:36:32.190Z,6.17
2023-02-12T14:39:05.612Z,6.80
2023-02-12T14:41:34.686Z,6.80
2023-02-12T14:44:20.753Z,6.77
2023-02-12T14:46:49.648Z,9.40
2023-02-12T14:49:28.644Z,7.63
2023-02-12T14:52:12.618Z,7.60
2023-02-12T14:54:45.671Z,8.60
2023-02-12T14:57:26.472Z,8.67
2023-02-12T14:59:56.390Z,8.40
2023-02-12T15:02:31.999Z,8.70
2023-02-12T15:05:03.514Z,9.43
2023-02-12T15:07:37.789Z,10.33
2023-02-12T15:10:10.693Z,11.40
2023-02-12T15:12:41.258Z,12.63
2023-02-12T15:15:53.212Z,13.30
2023-02-12T15:18:28.842Z,15.30
2023-02-12T15:21:14.417Z,15.00
2023-02-12T15:23:43.465Z,17.77
2023-02-12T15:26:19.126Z,16.93
2023-02-12T15:28:48.303Z,18.40
2023-02-12T15:31:20.798Z,15.80
2023-02-12T15:33:49.507Z,16.43
2023-02-12T15:36:18.645Z,17.30
2023-02-12T15:38:48.813Z,15.47
2023-02-12T15:41:33.606Z,17.67
2023-02-12T15:44:01.622Z,17.63
2023-02-12T15:46:28.215Z,17.37
2023-02-12T15:48:58.051Z,17.97
2023-02-12T15:51:27.519Z,19.40
2023-02-12T15:53:54.426Z,18.30
2023-02-12T15:56:23.371Z,19.53
2023-02-12T15:58:55.105Z,18.20
2023-02-12T16:01:24.035Z,20.23
2023-02-12T16:03:52.814Z,19.77
2023-02-12T16:06:20.257Z,20.67
2023-02-12T16:08:59.772Z,18.57
2023-02-12T16:11:27.602Z,18.57
2023-02-12T16:14:06.044Z,23.27
2023-02-12T16:16:46.153Z,18.50
2023-02-12T16:19:22.669Z,19.43
2023-02-12T16:22:01.870Z,21.83
2023-02-12T16:24:34.386Z,25.80
2023-02-12T16:27:31.900Z,22.23
2023-02-12T16:30:01.384Z,23.50
2023-02-12T16:32:42.697Z,23.60
2023-02-12T16:35:12.401Z,26.33
2023-02-12T16:37:39.314Z,25.90
2023-02-12T16:40:17.907Z,25.77
2023-02-12T16:42:47.417Z,25.50
2023-02-12T16:45:40.647Z,24.33
2023-02-12T16:48:25.814Z,25.50
2023-02-12T16:50:55.242Z,24.00
2023-02-12T16:53:34.273Z,29.37
2023-02-12T16:56:02.708Z,30.93
2023-02-12T16:58:29.218Z,31.07
2023-02-12T17:00:57.564Z,28.37
2023-02-12T17:03:25.270Z,33.17
2023-02-12T17:05:52.459Z,34.93
2023-02-12T17:08:21.766Z,29.83
2023-02-12T17:10:48.583Z,34.87
2023-02-12T17:13:16.149Z,36.50
2023-02-12T17:15:47.739Z,32.70
2023-02-12T17:18:14.400Z,35.83
2023-02-12T17:20:41.156Z,36.33
2023-02-12T17:23:07.770Z,40.10
2023-02-12T17:25:36.197Z,43.60
2023-02-12T17:28:02.701Z,42.83
2023-02-12T17:30:29.875Z,42.93
2023-02-12T17:32:56.414Z,40.13
2023-02-12T17:35:23.016Z,38.90
2023-02-12T17:37:49.515Z,39.10
2023-02-12T17:40:16.409Z,36.77
2023-02-12T17:42:42.878Z,39.27
2023-02-12T17:45:09.731Z,38.17
2023-02-12T17:47:39.969Z,36.67
2023-02-12T17:50:13.905Z,38.67
2023-02-12T17:52:40.615Z,38.63
2023-02-12T17:55:07.878Z,39.17
2023-02-12T17:57:34.442Z,44.30
2023-02-12T18:00:00.926Z,44.03
2023-02-12T18:02:27.388Z,46.30
2023-02-12T18:04:53.857Z,39.57
2023-02-12T18:07:20.326Z,39.57
2023-02-12T18:09:47.827Z,36.90
2023-02-12T18:12:14.408Z,40.27
2023-02-12T18:14:41.587Z,38.17
2023-02-12T18:17:08.027Z,35.67
2023-02-12T18:19:34.602Z,33.87
2023-02-12T18:22:01.054Z,35.07
2023-02-12T18:24:32.832Z,32.70
2023-02-12T18:26:59.545Z,34.00
2023-02-12T18:29:26.401Z,33.07
2023-02-12T18:31:54.767Z,33.83
2023-02-12T18:34:22.164Z,31.57
2023-02-12T18:36:49.931Z,33.07
2023-02-12T18:39:16.463Z,30.43
2023-02-12T18:41:42.949Z,28.10
2023-02-12T18:44:09.494Z,29.93
2023-02-12T18:46:36.116Z,32.57
2023-02-12T18:49:02.933Z,29.03
2023-02-12T18:51:31.824Z,30.40
2023-02-12T18:54:05.278Z,29.47
2023-02-12T18:56:35.799Z,27.43
2023-02-12T18:59:04.879Z,30.07
2023-02-12T19:01:33.236Z,32.07
2023-02-12T19:04:04.882Z,31.87
2023-02-12T19:06:32.643Z,28.43
2023-02-12T19:09:02.357Z,32.40
2023-02-12T19:11:31.138Z,26.37
2023-02-12T19:13:57.938Z,32.50
2023-02-12T19:16:25.496Z,25.30
2023-02-12T19:18:58.177Z,27.20
2023-02-12T19:21:26.406Z,26.23
2023-02-12T19:23:54.919Z,27.67
2023-02-12T19:26:25.301Z,28.73
2023-02-12T19:28:52.033Z,28.30
2023-02-12T19:31:21.220Z,28.10
2023-02-12T19:33:53.807Z,28.63
2023-02-12T19:36:20.770Z,28.47
2023-02-12T19:38:48.582Z,25.03
2023-02-12T19:41:18.036Z,28.17
2023-02-12T19:43:45.007Z,27.63
2023-02-12T19:46:17.882Z,25.20
2023-02-12T19:48:45.637Z,25.97
2023-02-12T19:51:17.875Z,27.07
2023-02-12T19:53:44.803Z,25.50
2023-02-12T19:56:11.919Z,21.47
2023-02-12T19:58:39.215Z,25.20
2023-02-12T20:01:14.276Z,22.73
2023-02-12T20:03:40.835Z,23.60
2023-02-12T20:06:10.759Z,21.27
2023-02-12T20:08:38.383Z,20.77
2023-02-12T20:11:10.485Z,20.83
2023-02-12T20:13:37.303Z,21.73
2023-02-12T20:16:09.442Z,23.80
2023-02-12T20:18:37.158Z,19.83
2023-02-12T20:21:11.652Z,19.60
2023-02-12T20:23:38.320Z,17.53
2023-02-12T20:26:10.137Z,16.47
2023-02-12T20:28:37.686Z,16.40
2023-02-12T20:31:12.877Z,17.90
2023-02-12T20:33:41.246Z,16.20
2023-02-12T20:36:09.215Z,18.37
2023-02-12T20:38:35.709Z,15.90
2023-02-12T20:41:03.432Z,15.07
2023-02-12T20:43:30.794Z,13.53
2023-02-12T20:48:25.408Z,14.17
2023-02-12T20:50:51.852Z,11.77
2023-02-12T20:53:18.290Z,13.50
2023-02-12T20:55:45.012Z,13.20
2023-02-12T20:58:11.469Z,9.93
2023-02-12T21:00:38.321Z,12.00
2023-02-12T21:03:06.029Z,13.43
2023-02-12T21:05:34.110Z,11.83
2023-02-12T21:08:00.575Z,13.90
2023-02-12T21:10:29.599Z,9.43
2023-02-12T21:12:56.254Z,11.70
2023-02-12T21:15:22.855Z,11.07
2023-02-12T21:17:49.767Z,8.93
2023-02-12T21:20:16.318Z,10.13
2023-02-12T21:22:42.941Z,10.43
2023-02-12T21:25:09.513Z,9.57
2023-02-12T21:27:40.868Z,11.83
2023-02-12T21:30:08.626Z,10.47
2023-02-12T21:32:35.667Z,10.70
2023-02-12T21:35:02.215Z,11.77
2023-02-12T21:37:28.759Z,12.87
2023-02-12T21:39:55.213Z,11.53
2023-02-12T21:42:21.672Z,9.63
2023-02-12T21:44:48.135Z,8.50
2023-02-12T21:47:14.595Z,9.17
2023-02-12T21:49:41.189Z,9.50
2023-02-12T21:52:07.679Z,11.03
2023-02-12T21:54:34.201Z,7.93
2023-02-12T21:57:00.852Z,9.73
2023-02-12T21:59:30.683Z,10.27
2023-02-12T22:01:59.098Z,9.40
2023-02-12T22:04:25.911Z,9.43
2023-02-12T22:06:52.887Z,8.87
2023-02-12T22:09:21.766Z,8.87
2023-02-12T22:11:48.315Z,9.10
2023-02-12T22:14:16.831Z,9.67
2023-02-12T22:16:43.575Z,7.40
2023-02-12T22:19:10.191Z,8.97
2023-02-12T22:21:39.542Z,9.73
2023-02-12T22:24:07.898Z,7.63
2023-02-12T22:26:35.062Z,6.77
2023-02-12T22:29:04.942Z,9.80
2023-02-12T22:31:33.384Z,9.73
2023-02-12T22:34:02.362Z,7.50
2023-02-12T22:36:29.293Z,7.90
2023-02-12T22:38:58.232Z,10.00
2023-02-12T22:41:25.422Z,9.60
2023-02-12T22:43:52.554Z,10.30
2023-02-12T22:46:19.611Z,9.57
2023-02-12T22:48:46.140Z,10.80
2023-02-12T22:51:22.771Z,11.60
2023-02-12T22:53:49.346Z,9.40
2023-02-12T22:56:18.229Z,9.83
2023-02-12T22:58:45.146Z,9.00
2023-02-12T23:01:16.578Z,11.37
2023-02-12T23:03:45.401Z,9.47
2023-02-12T23:06:14.408Z,9.13
2023-02-12T23:08:41.019Z,10.37
2023-02-12T23:11:08.642Z,10.60
2023-02-12T23:13:36.607Z,8.50
2023-02-12T23:16:07.246Z,9.43
2023-02-12T23:18:38.000Z,9.00
2023-02-12T23:21:05.127Z,11.20
2023-02-12T23:23:31.740Z,9.77
2023-02-12T23:25:58.165Z,10.80
2023-02-12T23:28:24.916Z,10.83
2023-02-12T23:30:51.935Z,11.87
2023-02-12T23:33:19.469Z,11.43
2023-02-12T23:35:46.344Z,11.03
2023-02-12T23:38:12.960Z,11.00
2023-02-12T23:40:39.571Z,12.37
2023-02-12T23:43:06.114Z,10.27
2023-02-12T23:45:32.640Z,14.13
2023-02-12T23:47:59.176Z,12.83
2023-02-12T23:50:25.664Z,11.70
2023-02-12T23:52:52.205Z,11.87
2023-02-12T23:55:20.223Z,13.83
2023-02-12T23:57:47.308Z,12.50
